createdAt,value
2023-01-25T00:00:25.607Z,26.13
2023-01-25T00:05:27.402Z,26.50
2023-01-25T00:10:29.262Z,26.93
2023-01-25T00:15:30.885Z,25.88
2023-01-25T00:20:32.535Z,26.17
2023-01-25T00:25:34.280Z,27.05
2023-01-25T00:30:35.977Z,25.00
2023-01-25T00:35:38.655Z,26.55
2023-01-25T00:45:42.083Z,25.92
2023-01-25T00:50:44.085Z,25.07
2023-01-25T00:55:53.392Z,26.00
2023-01-25T01:00:56.190Z,25.38
2023-01-25T01:06:01.094Z,25.83
2023-01-25T01:11:06.186Z,24.63
2023-01-25T01:16:11.776Z,24.42
2023-01-25T01:21:14.206Z,25.13
2023-01-25T01:26:21.440Z,25.75
2023-01-25T01:31:24.352Z,24.80
2023-01-25T01:36:38.371Z,23.65
2023-01-25T01:41:40.121Z,22.38
2023-01-25T01:46:51.566Z,22.48
2023-01-25T01:52:20.221Z,21.85
2023-01-25T01:57:26.085Z,20.80
2023-01-25T02:02:29.715Z,21.65
2023-01-25T02:07:37.379Z,21.50
2023-01-25T02:12:39.453Z,22.20
2023-01-25T02:17:42.761Z,22.15
2023-01-25T02:23:02.135Z,21.85
2023-01-25T02:28:11.035Z,23.67
2023-01-25T02:33:13.098Z,22.08
2023-01-25T02:38:18.272Z,22.73
2023-01-25T02:43:20.635Z,21.50
2023-01-25T02:48:22.448Z,22.58
2023-01-25T02:53:24.967Z,22.88
2023-01-25T02:58:27.984Z,22.75
2023-01-25T03:03:29.683Z,22.20
2023-01-25T03:08:31.482Z,23.00
2023-01-25T03:13:34.675Z,22.63
2023-01-25T03:18:38.149Z,21.35
2023-01-25T03:23:40.944Z,20.92
2023-01-25T03:28:44.790Z,19.80
2023-01-25T03:33:47.020Z,20.38
2023-01-25T03:38:48.831Z,20.13
2023-01-25T03:43:50.823Z,19.73
2023-01-25T03:48:53.160Z,18.23
2023-01-25T03:53:55.041Z,19.67
2023-01-25T03:58:56.945Z,19.63
2023-01-25T04:03:58.745Z,19.77
2023-01-25T04:09:00.647Z,18.17
2023-01-25T04:14:10.258Z,18.67
2023-01-25T04:19:21.003Z,19.15
2023-01-25T04:24:22.866Z,20.80
2023-01-25T04:29:35.495Z,19.30
2023-01-25T04:34:42.653Z,18.88
2023-01-25T04:39:49.417Z,19.02
2023-01-25T04:44:51.435Z,18.40
2023-01-25T04:49:54.004Z,17.65
2023-01-25T04:54:59.344Z,18.90
2023-01-25T05:00:01.856Z,18.85
2023-01-25T05:05:04.660Z,20.27
2023-01-25T05:10:07.996Z,19.02
2023-01-25T05:15:13.777Z,19.08
2023-01-25T05:20:15.493Z,19.77
2023-01-25T05:25:36.224Z,18.42
2023-01-25T05:30:38.922Z,19.42
2023-01-25T05:35:56.256Z,19.08
2023-01-25T05:40:59.643Z,18.27
2023-01-25T05:46:02.576Z,19.20
2023-01-25T05:51:04.404Z,19.70
2023-01-25T05:56:08.992Z,19.42
2023-01-25T06:01:11.671Z,19.55
2023-01-25T06:06:22.036Z,20.05
2023-01-25T06:11:24.563Z,19.65
2023-01-25T06:16:28.506Z,19.05
2023-01-25T06:21:50.753Z,17.10
2023-01-25T06:26:52.463Z,18.20
2023-01-25T06:31:55.641Z,17.60
2023-01-25T06:36:57.370Z,18.25
2023-01-25T06:41:59.038Z,17.60
2023-01-25T06:47:00.851Z,18.07
2023-01-25T06:52:02.637Z,17.48
2023-01-25T06:57:04.354Z,17.88
2023-01-25T07:02:06.484Z,17.50
2023-01-25T07:07:09.288Z,17.67
2023-01-25T07:17:12.651Z,22.60
2023-01-25T07:22:14.516Z,20.35
2023-01-25T07:27:17.443Z,20.77
2023-01-25T07:32:19.131Z,19.92
2023-01-25T07:37:20.865Z,20.08
2023-01-25T07:42:22.625Z,20.97
2023-01-25T07:47:27.860Z,20.27
2023-01-25T07:52:29.521Z,20.63
2023-01-25T07:57:31.855Z,20.00
2023-01-25T08:02:33.715Z,21.33
2023-01-25T08:07:35.443Z,20.33
2023-01-25T08:12:37.946Z,20.10
2023-01-25T08:17:40.227Z,20.48
2023-01-25T08:22:42.147Z,20.88
2023-01-25T08:27:43.965Z,20.02
2023-01-25T08:32:45.659Z,19.90
2023-01-25T08:37:47.453Z,19.60
2023-01-25T08:42:49.256Z,20.03
2023-01-25T08:47:50.920Z,18.70
2023-01-25T08:52:52.585Z,18.33
2023-01-25T08:57:56.460Z,16.58
2023-01-25T09:02:58.221Z,17.55
2023-01-25T09:08:00.654Z,17.60
2023-01-25T09:13:02.775Z,18.67
2023-01-25T09:18:04.579Z,19.58
2023-01-25T09:23:06.275Z,19.50
2023-01-25T09:28:11.564Z,19.42
2023-01-25T09:33:16.778Z,20.10
2023-01-25T09:38:18.551Z,21.02
2023-01-25T09:43:44.514Z,21.27
2023-01-25T09:49:07.608Z,20.98
2023-01-25T09:54:10.409Z,22.30
2023-01-25T09:59:19.758Z,21.60
2023-01-25T10:04:35.676Z,21.05
2023-01-25T10:09:44.876Z,21.45
2023-01-25T10:14:47.567Z,22.20
2023-01-25T10:25:32.094Z,21.58
2023-01-25T10:30:56.749Z,18.45
2023-01-25T10:36:05.325Z,19.52
2023-01-25T10:41:36.347Z,18.50
2023-01-25T10:46:40.041Z,19.27
2023-01-25T10:51:41.752Z,19.67
2023-01-25T10:56:45.983Z,19.87
2023-01-25T11:01:48.169Z,19.45
2023-01-25T11:06:51.509Z,19.95
2023-01-25T11:11:56.291Z,20.50
2023-01-25T11:16:59.918Z,20.85
2023-01-25T11:22:06.159Z,20.90
2023-01-25T11:27:21.379Z,19.95
2023-01-25T11:32:25.260Z,20.35
2023-01-25T11:37:54.602Z,21.42
2023-01-25T11:43:28.627Z,22.20
2023-01-25T11:49:02.692Z,21.48
2023-01-25T11:54:17.558Z,22.35
2023-01-25T11:59:31.554Z,21.73
2023-01-25T12:04:36.028Z,21.80
2023-01-25T12:09:49.831Z,22.05
2023-01-25T12:15:15.931Z,20.77
2023-01-25T12:20:31.677Z,20.73
2023-01-25T12:26:04.328Z,21.05
2023-01-25T12:31:16.832Z,20.80
2023-01-25T12:36:28.290Z,19.45
2023-01-25T12:41:52.035Z,19.83
2023-01-25T12:47:13.428Z,19.52
2023-01-25T12:52:24.358Z,19.83
2023-01-25T12:57:33.968Z,19.02
2023-01-25T13:03:13.013Z,19.83
2023-01-25T13:08:32.183Z,20.52
2023-01-25T13:13:34.695Z,21.05
2023-01-25T13:18:38.123Z,20.70
2023-01-25T13:23:46.061Z,21.85
2023-01-25T13:28:48.834Z,23.13
2023-01-25T13:33:50.627Z,21.85
2023-01-25T13:38:52.263Z,22.05
2023-01-25T13:44:15.784Z,20.25
2023-01-25T13:49:27.156Z,23.38
2023-01-25T13:54:28.998Z,21.42
2023-01-25T13:59:30.959Z,21.37
2023-01-25T14:04:32.846Z,21.23
2023-01-25T14:09:34.777Z,22.52
2023-01-25T14:14:37.885Z,22.08
2023-01-25T14:19:41.428Z,23.33
2023-01-25T14:24:43.148Z,22.27
2023-01-25T14:29:48.746Z,20.57
2023-01-25T14:34:50.524Z,21.30
2023-01-25T14:39:52.516Z,20.33
2023-01-25T14:44:54.407Z,22.87
2023-01-25T14:49:56.172Z,21.23
2023-01-25T14:54:59.961Z,21.27
2023-01-25T15:00:09.202Z,22.00
2023-01-25T15:05:33.718Z,21.58
2023-01-25T15:10:37.468Z,22.05
2023-01-25T15:15:53.536Z,20.05
2023-01-25T15:20:55.446Z,21.05
2023-01-25T15:25:59.944Z,22.53
2023-01-25T15:31:04.235Z,23.65
2023-01-25T15:36:06.316Z,23.20
2023-01-25T15:41:08.044Z,23.47
2023-01-25T15:46:22.685Z,21.92
2023-01-25T15:51:24.519Z,22.33
2023-01-25T15:56:37.023Z,23.00
2023-01-25T16:01:38.843Z,22.65
2023-01-25T16:06:51.642Z,22.65
2023-01-25T16:11:56.380Z,20.80
2023-01-25T16:17:02.333Z,22.73
2023-01-25T16:22:04.123Z,21.33
2023-01-25T16:27:05.857Z,22.65
2023-01-25T16:32:07.543Z,21.30
2023-01-25T16:37:17.274Z,21.77
2023-01-25T16:42:21.168Z,20.77
2023-01-25T16:47:24.262Z,20.65
2023-01-25T16:52:25.928Z,21.88
2023-01-25T16:57:27.619Z,22.40
2023-01-25T17:02:29.447Z,23.17
2023-01-25T17:07:31.532Z,20.77
2023-01-25T17:12:33.399Z,21.20
2023-01-25T17:17:35.322Z,21.35
2023-01-25T17:22:38.086Z,28.37
2023-01-25T17:27:39.781Z,24.77
2023-01-25T17:32:41.551Z,24.33
2023-01-25T17:37:43.163Z,20.77
2023-01-25T17:42:44.965Z,21.53
2023-01-25T17:47:46.639Z,20.70
2023-01-25T17:52:48.434Z,21.47
2023-01-25T17:57:51.260Z,20.90
2023-01-25T18:02:53.663Z,18.02
2023-01-25T18:07:55.373Z,18.20
2023-01-25T18:13:04.440Z,18.70
2023-01-25T18:18:08.093Z,18.50
2023-01-25T18:23:09.921Z,18.17
2023-01-25T18:28:13.740Z,17.73
2023-01-25T18:33:15.311Z,17.75
2023-01-25T18:38:17.696Z,17.90
2023-01-25T18:43:20.131Z,18.05
2023-01-25T18:48:30.235Z,17.92
2023-01-25T18:53:33.677Z,18.90
2023-01-25T18:58:37.062Z,19.63
2023-01-25T19:03:38.876Z,18.77
2023-01-25T19:08:43.146Z,19.57
2023-01-25T19:13:45.159Z,18.92
2023-01-25T19:18:52.648Z,18.60
2023-01-25T19:23:55.867Z,19.23
2023-01-25T19:28:57.875Z,18.98
2023-01-25T19:34:02.018Z,18.30
2023-01-25T19:39:05.529Z,19.65
2023-01-25T19:44:09.521Z,19.88
2023-01-25T19:49:13.214Z,18.90
2023-01-25T19:54:17.303Z,19.17
2023-01-25T19:59:21.585Z,18.83
2023-01-25T20:04:24.051Z,18.45
2023-01-25T20:09:27.860Z,17.77
2023-01-25T20:14:29.782Z,17.00
2023-01-25T20:19:32.710Z,18.50
2023-01-25T20:24:34.432Z,16.33
2023-01-25T20:29:36.232Z,16.20
2023-01-25T20:34:38.032Z,15.40
2023-01-25T20:39:39.795Z,16.40
2023-01-25T20:44:41.556Z,15.90
2023-01-25T20:49:43.448Z,15.63
2023-01-25T20:54:45.209Z,13.90
2023-01-25T20:59:46.879Z,14.73
2023-01-25T21:04:48.571Z,14.48
2023-01-25T21:09:50.214Z,13.48
2023-01-25T21:14:52.256Z,13.07
2023-01-25T21:19:53.891Z,13.68
2023-01-25T21:24:55.820Z,12.85
2023-01-25T21:29:57.527Z,13.07
2023-01-25T21:34:59.241Z,13.57
2023-01-25T21:40:00.925Z,16.58
2023-01-25T21:45:21.302Z,13.55
2023-01-25T21:50:41.503Z,13.32
2023-01-25T21:55:43.388Z,12.45
2023-01-25T22:00:45.005Z,13.90
2023-01-25T22:05:54.095Z,14.90
2023-01-25T22:11:08.047Z,14.40
2023-01-25T22:16:11.153Z,14.75
2023-01-25T22:21:21.581Z,14.20
2023-01-25T22:26:24.873Z,13.35
2023-01-25T22:31:29.026Z,12.75
2023-01-25T22:36:31.303Z,13.98
2023-01-25T22:41:36.992Z,13.07
2023-01-25T22:46:38.666Z,11.68
2023-01-25T22:51:40.364Z,13.43
2023-01-25T22:56:42.031Z,12.55
2023-01-25T23:01:43.721Z,13.82
2023-01-25T23:06:45.324Z,14.82
2023-01-25T23:11:46.965Z,13.63
2023-01-25T23:16:48.703Z,13.25
2023-01-25T23:21:50.395Z,13.77
2023-01-25T23:26:51.999Z,12.82
2023-01-25T23:31:53.691Z,12.93
2023-01-25T23:36:55.377Z,12.17
2023-01-25T23:41:57.129Z,12.85
2023-01-25T23:46:59.070Z,13.43
2023-01-25T23:52:01.115Z,12.97
2023-01-25T23:57:02.993Z,12.75
